Time;durP1;ratioP1;P1;durP2;ratioP2;P2;SDS_P1;SDS_P2;PMS_P1;PMS_P2;Temp;Humidity;BMP_temperature;BMP_pressure;BME280_temperature;BME280_humidity;BME280_pressure;Samples;Min_cycle;Max_cycle;Signal;HPM_P1;HPM_P2
2021/12/18 00:03:04;;;;;;;33.72;15.25;;;;;;;2.49;100.00;101959.44;8154453;29;20039;-82
2021/12/18 00:07:05;;;;;;;32.70;15.85;;;;;;;2.48;100.00;101951.44;8152810;28;20560;-80
2021/12/18 00:11:07;;;;;;;40.40;16.85;;;;;;;2.44;100.00;101960.88;8154749;29;20052;-82
2021/12/18 00:15:07;;;;;;;35.33;16.17;;;;;;;2.40;100.00;101957.59;8144812;29;20040;-81
2021/12/18 00:19:08;;;;;;;38.10;16.27;;;;;;;2.39;100.00;101955.03;8146960;29;20055;-80
2021/12/18 00:23:08;;;;;;;36.95;15.82;;;;;;;2.36;100.00;101945.28;8147037;29;20044;-80
2021/12/18 00:27:09;;;;;;;39.17;16.25;;;;;;;2.36;100.00;101948.00;8140671;29;20047;-79
2021/12/18 00:31:10;;;;;;;32.58;15.57;;;;;;;2.35;100.00;101949.03;8139415;29;20138;-80
2021/12/18 00:35:11;;;;;;;34.97;15.15;;;;;;;2.32;100.00;101953.88;8138740;29;20039;-79
2021/12/18 00:39:12;;;;;;;43.72;17.17;;;;;;;2.26;100.00;101958.91;8147105;29;20043;-79
2021/12/18 00:43:28;;;;;;;38.40;16.60;;;;;;;2.25;100.00;101956.31;8142083;29;20044;-80
2021/12/18 00:47:28;;;;;;;37.45;17.15;;;;;;;2.23;100.00;101951.03;8150241;29;20124;-80
2021/12/18 00:51:29;;;;;;;43.83;17.40;;;;;;;2.22;100.00;101949.28;8121642;29;20044;-80
2021/12/18 00:55:29;;;;;;;44.60;18.20;;;;;;;2.25;100.00;101954.44;8154580;29;20071;-79
2021/12/18 00:59:32;;;;;;;38.38;17.30;;;;;;;2.22;100.00;101959.31;8155818;29;20047;-80
2021/12/18 01:03:34;;;;;;;40.00;16.80;;;;;;;2.18;100.00;101961.47;8156882;29;20066;-79
2021/12/18 01:07:35;;;;;;;38.17;15.83;;;;;;;2.14;100.00;101967.31;8156301;29;20516;-81
2021/12/18 01:15:42;;;;;;;41.85;16.10;;;;;;;2.03;100.00;101960.16;8147644;29;20058;-79
2021/12/18 01:24:03;;;;;;;44.53;16.98;;;;;;;1.94;100.00;101951.00;8150727;29;20048;-81
2021/12/18 01:28:04;;;;;;;39.38;15.48;;;;;;;1.95;100.00;101952.72;8149558;29;20054;-81
2021/12/18 01:32:05;;;;;;;44.28;17.27;;;;;;;1.96;100.00;101950.84;8131239;29;20386;-80
2021/12/18 01:36:06;;;;;;;34.80;15.05;;;;;;;1.93;100.00;101959.28;8142875;29;20636;-80
2021/12/18 01:40:07;;;;;;;38.67;16.35;;;;;;;1.93;100.00;101962.00;8151936;29;20048;-81
2021/12/18 01:53:07;;;;;;;38.10;16.42;;;;;;;1.88;100.00;101964.31;8150972;29;20074;-80
2021/12/18 01:57:07;;;;;;;39.67;16.35;;;;;;;1.83;100.00;101962.84;8158046;28;20048;-80
2021/12/18 02:01:08;;;;;;;36.30;16.00;;;;;;;1.82;100.00;101966.56;8140464;29;20111;-80
2021/12/18 02:05:08;;;;;;;43.20;18.73;;;;;;;1.79;100.00;101968.72;8149445;29;20055;-80
2021/12/18 02:09:09;;;;;;;40.85;16.70;;;;;;;1.77;100.00;101960.69;8147213;29;20454;-80
2021/12/18 02:13:36;;;;;;;46.92;18.77;;;;;;;1.72;100.00;101959.38;8143327;29;20126;-80
2021/12/18 02:21:56;;;;;;;43.55;17.63;;;;;;;1.56;100.00;101966.22;8146882;29;20046;-81
2021/12/18 02:25:56;;;;;;;43.22;17.85;;;;;;;1.51;100.00;101964.91;8158704;29;20052;-80
2021/12/18 02:29:58;;;;;;;39.65;17.20;;;;;;;1.46;100.00;101961.72;8127922;29;20079;-80
2021/12/18 02:33:59;;;;;;;35.13;15.60;;;;;;;1.46;100.00;101965.34;8145179;29;20063;-80
2021/12/18 02:38:11;;;;;;;38.25;15.18;;;;;;;1.48;100.00;101962.47;8153392;29;20043;-80
2021/12/18 02:42:17;;;;;;;29.20;12.35;;;;;;;1.52;100.00;101963.94;8133634;29;20051;-81
2021/12/18 02:46:21;;;;;;;38.30;14.55;;;;;;;1.54;100.00;101964.63;8152860;29;20040;-81
2021/12/18 02:50:21;;;;;;;40.40;16.08;;;;;;;1.56;100.00;101952.63;8144769;29;20055;-78
2021/12/18 02:54:22;;;;;;;38.25;15.27;;;;;;;1.53;100.00;101957.50;8142349;29;20401;-80
2021/12/18 02:58:22;;;;;;;32.60;14.18;;;;;;;1.49;100.00;101964.22;8133795;29;20047;-81
2021/12/18 03:02:24;;;;;;;40.75;16.17;;;;;;;1.44;100.00;101955.59;8164239;29;20051;-81
2021/12/18 03:06:39;;;;;;;42.03;15.82;;;;;;;1.35;100.00;101965.44;8170013;29;20095;-81
2021/12/18 03:27:27;;;;;;;43.70;17.77;;;;;;;1.33;100.00;101965.56;8143329;29;20102;-81
2021/12/18 03:31:28;;;;;;;48.83;16.83;;;;;;;1.36;100.00;101961.72;8146183;29;20039;-80
2021/12/18 03:35:29;;;;;;;50.28;20.00;;;;;;;1.39;100.00;101963.28;8143498;29;20095;-81
2021/12/18 03:39:29;;;;;;;50.22;20.23;;;;;;;1.42;100.00;101960.31;8158853;29;20036;-80
2021/12/18 03:43:30;;;;;;;48.67;19.23;;;;;;;1.44;100.00;101961.03;8148344;29;20048;-80
2021/12/18 03:47:30;;;;;;;52.05;20.85;;;;;;;1.43;100.00;101962.00;8139066;29;20050;-81
2021/12/18 03:51:31;;;;;;;64.25;23.08;;;;;;;1.40;100.00;101968.59;8154262;29;20043;-81
2021/12/18 03:55:31;;;;;;;56.88;20.35;;;;;;;1.34;100.00;101959.16;8126637;29;20560;-81
2021/12/18 03:59:33;;;;;;;51.30;18.65;;;;;;;1.33;100.00;101965.56;8135015;29;20428;-80
2021/12/18 04:03:33;;;;;;;53.35;20.50;;;;;;;1.33;100.00;101968.28;8166838;29;20039;-81
2021/12/18 04:07:40;;;;;;;62.95;19.77;;;;;;;1.38;100.00;101964.31;8136551;29;20047;-81
2021/12/18 04:11:42;;;;;;;51.58;19.13;;;;;;;1.45;100.00;101954.59;8159737;29;20055;-81
2021/12/18 04:15:42;;;;;;;48.90;19.08;;;;;;;1.64;100.00;101956.53;8127059;29;20047;-80
2021/12/18 04:19:42;;;;;;;41.38;17.60;;;;;;;1.80;100.00;101971.28;8140068;29;20070;-81
2021/12/18 04:23:43;;;;;;;40.13;17.98;;;;;;;1.93;100.00;101970.16;8152342;29;20508;-81
2021/12/18 04:27:43;;;;;;;40.83;16.13;;;;;;;2.04;100.00;101978.19;8147582;29;20556;-81
2021/12/18 04:31:44;;;;;;;32.72;15.25;;;;;;;2.16;100.00;101971.63;8158868;29;20426;-80
2021/12/18 04:35:44;;;;;;;36.80;15.75;;;;;;;2.29;100.00;101963.19;8144416;29;20047;-81
2021/12/18 04:39:44;;;;;;;34.88;16.33;;;;;;;2.36;100.00;101961.59;8155836;29;20044;-81
2021/12/18 04:43:45;;;;;;;32.25;13.85;;;;;;;2.42;100.00;101952.88;8145666;29;20055;-80
2021/12/18 04:47:46;;;;;;;33.87;13.93;;;;;;;2.49;100.00;101954.00;8137474;29;20122;-81
2021/12/18 04:51:47;;;;;;;26.25;13.25;;;;;;;2.57;100.00;101955.16;8135900;29;20657;-79
2021/12/18 04:55:47;;;;;;;34.53;14.32;;;;;;;2.58;100.00;101963.16;8151661;29;20059;-81
2021/12/18 04:59:48;;;;;;;29.40;13.35;;;;;;;2.62;100.00;101958.31;8138617;29;20052;-81
2021/12/18 05:03:49;;;;;;;30.85;13.93;;;;;;;2.72;100.00;101959.13;8152060;29;20052;-80
2021/12/18 05:07:49;;;;;;;30.48;12.90;;;;;;;2.79;100.00;101949.38;8130812;29;20081;-80
2021/12/18 05:11:51;;;;;;;30.00;13.15;;;;;;;2.81;100.00;101954.69;8132517;29;20052;-80
2021/12/18 05:15:51;;;;;;;29.67;13.73;;;;;;;2.87;100.00;101967.72;8142472;29;20052;-79
2021/12/18 05:19:52;;;;;;;27.52;12.68;;;;;;;2.90;100.00;101964.69;8126615;29;20052;-79
2021/12/18 05:23:53;;;;;;;27.00;12.50;;;;;;;2.92;100.00;101960.81;8143333;29;20127;-81
2021/12/18 05:27:53;;;;;;;33.85;15.50;;;;;;;2.92;100.00;101958.09;8143990;29;20059;-81
2021/12/18 05:31:54;;;;;;;33.58;13.65;;;;;;;2.93;100.00;101961.66;8154333;29;20056;-80
2021/12/18 05:35:54;;;;;;;27.88;11.95;;;;;;;2.81;100.00;101968.28;8149054;29;20055;-81
2021/12/18 05:39:54;;;;;;;26.85;11.40;;;;;;;2.83;100.00;101969.03;8130586;29;20044;-81
2021/12/18 05:43:55;;;;;;;28.27;10.97;;;;;;;2.89;100.00;101969.28;8146227;29;20409;-81
2021/12/18 05:47:56;;;;;;;24.60;11.05;;;;;;;2.94;100.00;101967.00;8153045;29;20662;-81
2021/12/18 05:51:57;;;;;;;26.23;10.10;;;;;;;2.98;100.00;101959.38;8135521;29;20043;-80
2021/12/18 05:55:57;;;;;;;30.52;11.50;;;;;;;3.02;100.00;101952.59;8132252;29;20075;-80
2021/12/18 05:59:57;;;;;;;27.85;12.48;;;;;;;3.00;100.00;101965.50;8139457;29;20425;-81
2021/12/18 06:03:58;;;;;;;32.40;12.63;;;;;;;2.94;100.00;101975.16;8148675;29;20044;-81
2021/12/18 06:08:01;;;;;;;26.83;11.68;;;;;;;2.91;100.00;101967.25;8158909;29;20174;-82
2021/12/18 06:12:02;;;;;;;34.80;11.65;;;;;;;3.00;100.00;101975.56;8155874;28;20076;-81
2021/12/18 06:16:07;;;;;;;28.27;11.55;;;;;;;3.08;100.00;101984.72;8142178;29;20044;-81
2021/12/18 06:20:09;;;;;;;27.23;12.43;;;;;;;3.14;100.00;101989.56;8145157;29;20623;-81
2021/12/18 06:24:09;;;;;;;25.92;11.77;;;;;;;3.16;100.00;101986.69;8150209;29;20384;-81
2021/12/18 06:28:09;;;;;;;28.42;11.52;;;;;;;3.17;100.00;101981.09;8149855;29;20047;-81
2021/12/18 06:32:10;;;;;;;28.77;12.43;;;;;;;3.24;100.00;101989.53;8130839;29;20056;-81
2021/12/18 06:36:10;;;;;;;23.92;11.27;;;;;;;3.26;100.00;101983.94;8136365;29;20038;-81
2021/12/18 06:40:11;;;;;;;26.05;11.68;;;;;;;3.29;100.00;101989.09;8150157;29;20344;-81
2021/12/18 06:44:11;;;;;;;23.15;11.05;;;;;;;3.33;100.00;101982.31;8139146;29;20123;-81
2021/12/18 06:48:12;;;;;;;24.38;11.00;;;;;;;3.37;100.00;101981.03;8148369;29;20047;-81
2021/12/18 06:52:12;;;;;;;26.02;10.65;;;;;;;3.45;100.00;101978.44;8138156;29;20687;-81
2021/12/18 06:56:13;;;;;;;23.13;10.55;;;;;;;3.53;100.00;101994.84;8126791;29;20039;-81
2021/12/18 07:00:15;;;;;;;22.40;9.52;;;;;;;3.59;100.00;101994.25;8131467;29;20042;-80
2021/12/18 07:04:15;;;;;;;23.38;10.40;;;;;;;3.68;100.00;101997.09;8150057;29;20509;-81
2021/12/18 07:08:16;;;;;;;20.93;10.57;;;;;;;3.75;100.00;101992.75;8145310;29;20043;-81
2021/12/18 07:12:16;;;;;;;20.05;8.48;;;;;;;3.83;100.00;101995.56;8138637;29;20303;-81
2021/12/18 07:16:17;;;;;;;23.42;10.18;;;;;;;3.90;100.00;101991.25;8150661;29;20410;-81
2021/12/18 07:20:17;;;;;;;23.30;10.30;;;;;;;3.93;100.00;101990.94;8160515;29;20046;-81
2021/12/18 07:24:18;;;;;;;21.88;10.38;;;;;;;3.97;100.00;101991.47;8149179;29;20127;-82
2021/12/18 07:28:18;;;;;;;19.27;9.80;;;;;;;4.02;100.00;101995.47;8164415;29;20047;-82
2021/12/18 07:32:19;;;;;;;23.67;10.07;;;;;;;4.05;100.00;101995.16;8142804;29;20300;-82
2021/12/18 07:36:20;;;;;;;18.35;10.27;;;;;;;4.03;100.00;101997.19;8144121;29;20107;-83
2021/12/18 07:40:21;;;;;;;25.50;10.00;;;;;;;4.04;100.00;102001.59;8170513;29;20564;-81
2021/12/18 07:44:22;;;;;;;19.23;10.18;;;;;;;4.05;100.00;102000.63;8153504;29;20087;-81
2021/12/18 07:48:22;;;;;;;23.55;11.18;;;;;;;4.05;100.00;101999.75;8160969;29;20134;-81
2021/12/18 07:52:24;;;;;;;22.42;10.90;;;;;;;4.11;100.00;102004.59;8163652;29;20055;-81
2021/12/18 07:56:25;;;;;;;24.08;12.13;;;;;;;4.13;100.00;102002.56;8160920;29;20043;-82
2021/12/18 08:00:25;;;;;;;21.10;10.65;;;;;;;4.19;100.00;101999.22;8131742;29;20504;-82
2021/12/18 08:04:26;;;;;;;24.13;12.35;;;;;;;4.21;100.00;101991.75;8139152;29;20083;-81
2021/12/18 08:08:26;;;;;;;22.55;10.77;;;;;;;4.27;100.00;101996.56;8151158;29;20039;-80
2021/12/18 08:12:27;;;;;;;22.60;11.52;;;;;;;4.30;100.00;102006.31;8161799;29;20066;-81
2021/12/18 08:16:27;;;;;;;21.07;11.40;;;;;;;4.34;100.00;102010.44;8156286;29;20054;-80
2021/12/18 08:20:27;;;;;;;20.23;11.38;;;;;;;4.33;100.00;102008.75;8142221;29;20294;-81
2021/12/18 08:24:28;;;;;;;22.33;11.77;;;;;;;4.34;100.00;102010.44;8167326;29;20044;-81
2021/12/18 08:28:28;;;;;;;19.60;10.65;;;;;;;4.38;100.00;102011.88;8156877;29;20370;-82
2021/12/18 08:32:29;;;;;;;21.95;11.57;;;;;;;4.39;100.00;102012.72;8134658;29;20449;-81
2021/12/18 08:36:29;;;;;;;24.17;12.13;;;;;;;4.44;100.00;102008.53;8157045;29;20039;-81
2021/12/18 08:40:31;;;;;;;40.08;20.08;;;;;;;4.49;100.00;102013.50;8152949;29;20102;-80
2021/12/18 08:44:33;;;;;;;51.03;25.25;;;;;;;4.53;100.00;102012.19;8154186;29;20039;-81
2021/12/18 08:48:34;;;;;;;31.70;17.63;;;;;;;4.60;100.00;102020.59;8165332;29;20058;-81
2021/12/18 08:52:34;;;;;;;29.38;16.33;;;;;;;4.62;100.00;102021.31;8138120;29;20051;-81
2021/12/18 08:56:35;;;;;;;27.23;16.20;;;;;;;4.64;100.00;102019.25;8133398;29;20575;-81
2021/12/18 09:00:36;;;;;;;21.20;11.65;;;;;;;4.67;100.00;102021.69;8145836;29;20079;-80
2021/12/18 09:04:37;;;;;;;22.67;12.90;;;;;;;4.66;100.00;102014.50;8170965;29;20044;-80
2021/12/18 09:08:38;;;;;;;20.83;9.30;;;;;;;4.62;100.00;102013.97;8155895;29;20062;-80
2021/12/18 09:12:38;;;;;;;19.88;9.75;;;;;;;4.62;100.00;102022.16;8144091;29;20051;-82
2021/12/18 09:16:38;;;;;;;19.33;9.43;;;;;;;4.67;100.00;102013.47;8161747;29;20102;-81
2021/12/18 09:20:41;;;;;;;19.02;10.70;;;;;;;4.71;100.00;102017.63;8164312;29;20051;-81
2021/12/18 09:24:41;;;;;;;21.80;11.68;;;;;;;4.71;100.00;102018.50;8145359;29;20044;-79
2021/12/18 09:28:42;;;;;;;24.38;12.13;;;;;;;4.71;99.38;102017.63;8148147;29;20625;-81
2021/12/18 09:32:43;;;;;;;23.98;10.98;;;;;;;4.68;99.54;102012.50;8162600;29;20868;-81
2021/12/18 09:36:43;;;;;;;23.50;10.75;;;;;;;4.65;99.79;102016.41;8149198;29;20170;-81
2021/12/18 09:40:44;;;;;;;24.30;14.98;;;;;;;4.71;99.22;102006.72;8134352;29;20051;-81
2021/12/18 09:44:48;;;;;;;24.75;15.50;;;;;;;4.69;99.08;102000.53;8144766;29;20458;-82
2021/12/18 09:48:50;;;;;;;24.75;13.48;;;;;;;4.73;99.77;102002.81;8144954;29;20064;-81
2021/12/18 09:52:51;;;;;;;21.80;12.32;;;;;;;4.77;99.14;102006.09;8147588;29;20134;-81
2021/12/18 09:56:52;;;;;;;25.52;14.35;;;;;;;4.76;98.71;101998.91;8151483;29;20524;-80
2021/12/18 10:00:53;;;;;;;22.23;12.07;;;;;;;4.74;98.28;101995.47;8135825;29;20047;-81
2021/12/18 10:04:53;;;;;;;21.45;11.73;;;;;;;4.68;98.65;101987.91;8148731;29;20548;-80
2021/12/18 10:08:54;;;;;;;22.33;12.25;;;;;;;4.81;99.13;101985.63;8154064;29;20048;-81
2021/12/18 10:13:10;;;;;;;30.27;11.13;;;;;;;4.89;99.06;101987.56;8164331;29;20058;-81
2021/12/18 10:17:19;;;;;;;26.35;13.75;;;;;;;4.90;98.33;101981.06;8132084;29;20053;-81
2021/12/18 10:21:22;;;;;;;24.77;12.27;;;;;;;4.85;97.25;101977.94;8140411;29;20107;-80
2021/12/18 10:25:30;;;;;;;22.65;12.52;;;;;;;4.89;98.05;101966.56;8153051;29;20044;-81
2021/12/18 10:29:35;;;;;;;23.95;13.30;;;;;;;4.86;97.62;101963.28;8162316;29;20058;-80
2021/12/18 10:33:35;;;;;;;28.40;13.75;;;;;;;4.94;97.77;101966.09;8148109;29;20043;-80
2021/12/18 10:37:37;;;;;;;37.38;17.77;;;;;;;4.94;97.19;101968.81;8144519;29;20489;-81
2021/12/18 10:41:38;;;;;;;25.83;12.95;;;;;;;4.96;96.70;101964.03;8145876;29;20493;-81
2021/12/18 10:45:38;;;;;;;28.70;15.35;;;;;;;4.94;97.10;101957.91;8149593;29;20036;-81
2021/12/18 10:49:39;;;;;;;27.45;13.50;;;;;;;4.85;95.70;101953.38;8149401;29;20413;-81
2021/12/18 10:53:43;;;;;;;26.92;14.80;;;;;;;4.85;96.25;101953.38;8147607;29;20052;-80
2021/12/18 10:57:52;;;;;;;26.88;12.82;;;;;;;4.96;96.86;101950.38;8149182;29;20569;-81
2021/12/18 11:02:01;;;;;;;26.83;13.40;;;;;;;5.08;96.97;101953.69;8149267;29;20052;-81
2021/12/18 11:06:04;;;;;;;29.88;14.48;;;;;;;5.07;95.80;101947.38;8153938;29;20046;-82
2021/12/18 11:10:54;;;;;;;23.98;12.73;;;;;;;4.91;95.22;101952.75;8158052;29;20084;-80
2021/12/18 11:14:48;;;;;;;27.00;12.30;;;;;;;4.88;95.79;101940.28;8178181;29;20062;-81
2021/12/18 11:18:49;;;;;;;26.50;12.85;;;;;;;4.90;95.49;101931.91;8161852;29;20043;-81
2021/12/18 11:22:52;;;;;;;25.77;13.00;;;;;;;4.86;95.72;101920.44;8178504;29;20044;-81
2021/12/18 11:26:56;;;;;;;;;;;;;;;4.85;95.91;101916.00;8161654;29;20078;-79
2021/12/18 11:30:58;;;;;;;24.17;12.55;;;;;;;4.93;95.91;101910.56;8189885;29;19911;-80
2021/12/18 11:35:03;;;;;;;29.98;14.23;;;;;;;4.96;95.92;101912.97;8142920;29;20054;-82
2021/12/18 11:39:04;;;;;;;28.08;13.10;;;;;;;4.97;95.32;101900.19;8159617;28;20052;-80
2021/12/18 11:43:28;;;;;;;27.48;13.25;;;;;;;4.94;95.88;101895.91;8135818;29;20460;-81
2021/12/18 11:47:38;;;;;;;28.70;12.90;;;;;;;4.92;95.53;101895.22;8140119;29;20050;-81
2021/12/18 11:51:39;;;;;;;28.92;13.52;;;;;;;4.96;95.14;101903.94;8155027;29;20036;-80
2021/12/18 11:55:48;;;;;;;31.75;14.00;;;;;;;4.85;96.34;101905.09;8152073;29;20074;-80
2021/12/18 11:59:49;;;;;;;29.00;13.98;;;;;;;4.91;95.88;101901.69;8139163;29;20039;-80
2021/12/18 12:03:52;;;;;;;26.85;12.90;;;;;;;4.99;96.52;101887.22;8160291;29;20054;-81
2021/12/18 12:08:20;;;;;;;26.20;13.43;;;;;;;4.89;95.21;101892.81;8159182;29;20466;-79
2021/12/18 12:12:21;;;;;;;28.38;13.38;;;;;;;4.61;96.20;101889.41;8150866;29;20094;-80
2021/12/18 12:16:44;;;;;;;26.60;12.57;;;;;;;4.49;96.93;101883.34;8167410;29;20099;-77
2021/12/18 12:20:51;;;;;;;24.40;12.50;;;;;;;4.43;97.31;101872.16;8141838;29;20426;-78
2021/12/18 12:24:56;;;;;;;26.20;12.18;;;;;;;4.49;97.60;101868.81;8138537;29;20070;-78
2021/12/18 12:28:57;;;;;;;23.63;11.90;;;;;;;4.61;96.83;101869.41;8139301;29;20147;-78
2021/12/18 12:33:01;;;;;;;26.83;12.93;;;;;;;4.65;96.48;101866.19;8159748;29;20043;-78
2021/12/18 12:37:23;;;;;;;27.48;13.30;;;;;;;4.65;97.21;101862.63;8166150;29;20079;-78
2021/12/18 12:41:36;;;;;;;26.80;12.57;;;;;;;4.64;96.98;101853.56;8157860;29;20119;-77
2021/12/18 12:45:38;;;;;;;25.17;11.80;;;;;;;4.68;97.74;101856.84;8138285;29;20035;-80
2021/12/18 12:49:39;;;;;;;23.00;11.45;;;;;;;4.75;97.10;101855.16;8134151;29;20538;-80
2021/12/18 12:53:53;;;;;;;25.20;11.73;;;;;;;4.73;96.56;101852.59;8116200;29;20083;-80
2021/12/18 12:58:01;;;;;;;27.70;12.73;;;;;;;4.75;96.98;101849.69;8131436;29;20048;-81
2021/12/18 13:02:06;;;;;;;23.67;12.02;;;;;;;4.73;96.30;101848.97;8126184;29;20048;-81
2021/12/18 13:06:10;;;;;;;24.25;11.50;;;;;;;4.56;97.68;101835.25;8142156;29;20487;-80
2021/12/18 13:10:11;;;;;;;23.80;10.30;;;;;;;4.53;97.01;101835.56;8152299;29;20062;-81
2021/12/18 13:14:14;;;;;;;22.10;10.13;;;;;;;4.49;97.95;101826.00;8158569;29;20039;-78
2021/12/18 13:18:15;;;;;;;22.67;10.45;;;;;;;4.48;98.03;101826.16;8148743;29;20051;-78
2021/12/18 13:22:16;;;;;;;23.83;9.73;;;;;;;4.50;97.57;101826.84;8144855;29;20091;-79
2021/12/18 13:26:27;;;;;;;19.83;9.18;;;;;;;4.50;98.13;101821.41;8155703;29;20059;-78
2021/12/18 13:30:34;;;;;;;21.10;10.65;;;;;;;4.48;97.66;101818.81;8159316;29;20126;-78
2021/12/18 13:34:39;;;;;;;20.73;9.63;;;;;;;4.48;97.63;101824.28;8154427;29;20043;-77
2021/12/18 13:38:44;;;;;;;21.13;9.45;;;;;;;4.48;97.63;101816.06;8145727;28;20122;-81
2021/12/18 13:42:44;;;;;;;20.42;9.77;;;;;;;4.46;97.54;101809.94;8145729;29;20051;-79
2021/12/18 13:46:45;;;;;;;23.77;10.68;;;;;;;4.22;97.90;101796.97;8132313;29;20127;-77
2021/12/18 13:51:01;;;;;;;19.83;9.80;;;;;;;4.30;98.89;101802.47;8154274;29;20126;-78
2021/12/18 13:55:02;;;;;;;20.25;10.48;;;;;;;4.34;97.90;101801.16;8143212;28;20136;-78
2021/12/18 13:59:17;;;;;;;24.17;10.15;;;;;;;4.40;98.14;101804.25;8136979;29;20449;-78
2021/12/18 14:03:21;;;;;;;19.65;9.27;;;;;;;4.32;97.73;101803.19;8158806;29;20076;-78
2021/12/18 14:07:22;;;;;;;15.85;7.75;;;;;;;4.18;98.57;101794.72;8145644;29;20135;-80
2021/12/18 14:11:31;;;;;;;15.55;8.73;;;;;;;4.11;99.06;101814.47;8144034;29;20085;-81
2021/12/18 14:15:31;;;;;;;18.98;8.65;;;;;;;4.02;99.42;101812.69;8158001;29;20051;-79
2021/12/18 14:19:37;;;;;;;15.80;7.63;;;;;;;4.08;99.42;101817.50;8145732;29;20118;-81
2021/12/18 14:23:40;;;;;;;14.15;6.82;;;;;;;3.96;98.79;101823.38;8138726;29;20063;-79
2021/12/18 14:28:01;;;;;;;14.82;6.82;;;;;;;3.84;100.00;101809.13;8141101;29;20432;-77
2021/12/18 14:32:06;;;;;;;15.88;7.95;;;;;;;3.87;100.00;101817.00;8153662;29;20074;-79
2021/12/18 14:36:06;;;;;;;21.65;8.50;;;;;;;3.93;100.00;101810.06;8159534;29;20046;-79
2021/12/18 14:40:17;;;;;;;15.90;7.32;;;;;;;3.91;100.00;101810.19;8141469;29;20056;-78
2021/12/18 14:44:17;;;;;;;14.52;6.70;;;;;;;3.86;100.00;101809.81;8142206;29;20096;-79
2021/12/18 14:48:29;;;;;;;16.15;7.57;;;;;;;3.85;100.00;101810.84;8156031;29;20055;-79
2021/12/18 14:52:30;;;;;;;15.57;8.40;;;;;;;3.85;100.00;101810.84;8153955;29;20048;-81
2021/12/18 14:56:31;;;;;;;16.60;9.10;;;;;;;3.88;100.00;101796.88;8146976;29;20528;-81
2021/12/18 15:00:35;;;;;;;22.63;9.80;;;;;;;3.64;100.00;101801.09;8159510;29;20528;-78
2021/12/18 15:04:36;;;;;;;24.40;10.93;;;;;;;3.73;100.00;101795.72;8151188;29;20091;-78
2021/12/18 15:08:40;;;;;;;18.45;8.77;;;;;;;3.84;100.00;101811.84;8159560;29;20161;-79
2021/12/18 15:12:41;;;;;;;18.23;9.43;;;;;;;3.83;100.00;101791.88;8144401;29;20150;-81
2021/12/18 15:16:45;;;;;;;16.92;7.68;;;;;;;3.88;100.00;101791.44;8165838;29;20110;-81
2021/12/18 15:20:46;;;;;;;19.00;8.60;;;;;;;3.82;100.00;101798.38;8148330;29;20103;-81
2021/12/18 15:24:47;;;;;;;19.08;9.50;;;;;;;3.82;100.00;101784.72;8149130;29;20051;-81
2021/12/18 15:28:48;;;;;;;19.23;9.15;;;;;;;3.84;100.00;101790.88;8148841;29;20465;-79
2021/12/18 15:32:48;;;;;;;18.63;9.43;;;;;;;3.91;100.00;101782.94;8157521;29;20048;-78
2021/12/18 15:36:51;;;;;;;23.55;11.02;;;;;;;3.88;100.00;101781.38;8160784;29;20250;-79
2021/12/18 15:40:51;;;;;;;21.92;10.13;;;;;;;3.91;100.00;101784.81;8155927;29;20052;-78
2021/12/18 15:44:51;;;;;;;18.92;8.55;;;;;;;3.89;100.00;101783.06;8156225;29;20070;-78
2021/12/18 15:48:52;;;;;;;20.95;10.00;;;;;;;3.87;100.00;101779.66;8143927;29;20494;-78
2021/12/18 15:52:53;;;;;;;18.13;9.10;;;;;;;3.73;100.00;101782.09;8155864;29;20417;-79
2021/12/18 15:56:54;;;;;;;20.30;9.98;;;;;;;3.75;100.00;101785.50;8130429;29;20047;-78
2021/12/18 16:00:54;;;;;;;18.13;8.77;;;;;;;3.75;100.00;101785.50;8157903;29;20047;-78
2021/12/18 16:04:55;;;;;;;16.73;7.90;;;;;;;3.73;100.00;101782.94;8134828;29;20048;-78
2021/12/18 16:08:56;;;;;;;19.17;8.00;;;;;;;3.65;100.00;101781.00;8167910;28;20048;-79
2021/12/18 16:12:57;;;;;;;17.15;8.73;;;;;;;3.67;100.00;101790.91;8128655;29;20071;-81
2021/12/18 16:16:58;;;;;;;16.27;7.43;;;;;;;3.69;100.00;101783.41;8148738;29;20161;-80
2021/12/18 16:20:59;;;;;;;19.35;8.10;;;;;;;3.60;100.00;101787.94;8143755;29;20048;-80
2021/12/18 16:25:00;;;;;;;17.58;7.35;;;;;;;3.63;100.00;101787.63;8156854;29;20792;-78
2021/12/18 16:29:02;;;;;;;12.40;6.97;;;;;;;3.57;100.00;101783.66;8149428;29;20051;-80
2021/12/18 16:33:03;;;;;;;14.38;7.47;;;;;;;3.58;100.00;101784.50;8147615;29;20044;-81
2021/12/18 16:37:07;;;;;;;15.10;7.88;;;;;;;3.60;100.00;101786.06;8140419;29;20055;-80
2021/12/18 16:41:10;;;;;;;17.98;8.05;;;;;;;3.64;100.00;101782.00;8132560;29;20054;-78
2021/12/18 16:45:10;;;;;;;14.75;6.47;;;;;;;3.72;100.00;101785.81;8126376;29;20052;-79
2021/12/18 16:49:12;;;;;;;15.57;6.75;;;;;;;3.67;100.00;101790.91;8120459;29;20422;-79
2021/12/18 16:53:13;;;;;;;13.18;7.00;;;;;;;3.64;100.00;101789.34;8137582;29;20387;-79
2021/12/18 16:57:15;;;;;;;15.32;7.65;;;;;;;3.65;100.00;101781.00;8159311;29;20040;-80
2021/12/18 17:01:19;;;;;;;16.80;8.38;;;;;;;3.74;100.00;101784.66;8160779;29;20044;-80
2021/12/18 17:05:21;;;;;;;11.07;5.43;;;;;;;3.74;100.00;101775.63;8141084;29;20485;-80
2021/12/18 17:09:22;;;;;;;15.13;6.38;;;;;;;3.73;100.00;101777.50;8155980;29;20158;-79
2021/12/18 17:13:23;;;;;;;15.57;7.30;;;;;;;3.69;100.00;101775.22;8147655;29;20047;-80
2021/12/18 17:17:24;;;;;;;14.93;7.13;;;;;;;3.65;100.00;101770.09;8153689;29;20485;-80
2021/12/18 17:21:24;;;;;;;20.23;10.02;;;;;;;3.70;100.00;101776.97;8140706;29;20112;-79
2021/12/18 17:25:27;;;;;;;19.65;9.48;;;;;;;3.77;100.00;101769.84;8145426;29;20047;-80
2021/12/18 17:29:28;;;;;;;11.70;6.70;;;;;;;3.79;100.00;101767.84;8164645;29;20508;-80
2021/12/18 17:33:29;;;;;;;17.02;8.43;;;;;;;3.81;100.00;101769.38;8162585;29;20040;-80
2021/12/18 17:37:29;;;;;;;15.60;7.43;;;;;;;3.79;100.00;101770.56;8146229;29;20063;-80
2021/12/18 17:41:30;;;;;;;16.90;7.63;;;;;;;3.82;100.00;101762.91;8158675;29;20516;-78
2021/12/18 17:45:31;;;;;;;16.05;8.00;;;;;;;3.82;100.00;101754.72;8125831;29;20408;-79
2021/12/18 17:49:32;;;;;;;17.30;8.02;;;;;;;3.83;100.00;101747.41;8137182;29;20039;-79
2021/12/18 17:53:33;;;;;;;13.95;6.75;;;;;;;3.89;100.00;101749.50;8156044;29;20618;-80
2021/12/18 17:57:34;;;;;;;12.32;5.50;;;;;;;3.91;100.00;101742.00;8145989;29;20039;-79
2021/12/18 18:01:34;;;;;;;12.38;6.40;;;;;;;3.89;100.00;101744.88;8168133;29;20055;-79
2021/12/18 18:05:35;;;;;;;15.60;7.03;;;;;;;3.96;100.00;101744.28;8147091;29;20039;-79
2021/12/18 18:09:39;;;;;;;17.45;7.07;;;;;;;3.99;100.00;101733.91;8133215;29;20797;-78
2021/12/18 18:13:39;;;;;;;15.85;7.68;;;;;;;3.95;100.00;101727.03;8153633;29;20100;-79
2021/12/18 18:17:40;;;;;;;15.75;7.68;;;;;;;3.97;100.00;101725.00;8159054;29;20091;-79
2021/12/18 18:21:40;;;;;;;16.77;7.78;;;;;;;4.00;100.00;101729.28;8163649;28;20054;-79
2021/12/18 18:25:43;;;;;;;15.30;7.05;;;;;;;4.03;100.00;101724.38;8156655;29;20048;-79
2021/12/18 18:29:43;;;;;;;;;;;;;;;4.01;100.00;101722.81;8137582;29;20486;-79
2021/12/18 18:33:44;;;;;;;16.88;6.55;;;;;;;4.01;100.00;101723.66;8149806;29;19918;-79
2021/12/18 18:37:45;;;;;;;16.23;7.18;;;;;;;4.01;100.00;101726.38;8152808;29;20573;-79
2021/12/18 18:41:45;;;;;;;14.88;7.07;;;;;;;4.00;100.00;101711.06;8138771;29;20051;-79
2021/12/18 18:45:46;;;;;;;15.10;7.22;;;;;;;4.05;100.00;101716.88;8132691;29;20040;-79
2021/12/18 18:49:47;;;;;;;18.20;7.82;;;;;;;4.09;100.00;101707.34;8153200;29;20051;-79
2021/12/18 18:53:47;;;;;;;17.10;7.45;;;;;;;4.11;100.00;101709.94;8160650;28;20068;-80
2021/12/18 18:57:48;;;;;;;18.15;7.47;;;;;;;4.14;100.00;101719.69;8165804;29;20417;-79
2021/12/18 19:01:48;;;;;;;18.13;8.30;;;;;;;4.15;100.00;101718.66;8165020;29;20043;-79
2021/12/18 19:05:49;;;;;;;17.38;7.93;;;;;;;4.19;100.00;101722.75;8158532;29;20557;-80
2021/12/18 19:09:50;;;;;;;20.73;9.32;;;;;;;4.11;100.00;101721.69;8148354;29;20046;-79